Fingard — OJNG — position and weather

sailwx.info

Track history (hours):
 
Tides and Currents Weather Stations Pressure Air Temp Water Temp Dewpoint Dewpoint Depression Visibility Wind Speed Wind Dir Waves Ship Positions

Fingard

Last reported at 2014-Jul-28 05:27 UTC. Time now 2014-Jul-28 06:18 UTC.
Position N 54°50' W 001°20'.

Length 95 m; draft 6 m.

Type: Ship. MMSI: 230999000.

Date/timePositionNaut miles runAvg speedWind from/ knotsBaromVisibWave heightAir tempDewpointWater temp
2014-Jul-28 05:27N 54°50' W 001°20'0 0.0
2014-Jul-28 04:33N 54°50' W 001°20'0 0.0
2014-Jul-28 03:33N 54°50' W 001°20'0 0.0
2014-Jul-28 02:33N 54°50' W 001°20'0 0.0
2014-Jul-28 01:33N 54°50' W 001°20'0 0.0
2014-Jul-28 00:33N 54°50' W 001°20'0 0.0
2014-Jul-27 23:33N 54°50' W 001°20'0 0.0
2014-Jul-27 22:33N 54°50' W 001°20'0 0.0
2014-Jul-27 21:33N 54°50' W 001°20'0 0.0
2014-Jul-27 20:33N 54°50' W 001°20'0 0.0
2014-Jul-27 19:30N 54°50' W 001°20'0 0.0
2014-Jul-27 18:33N 54°50' W 001°20'0 0.0
2014-Jul-27 17:33N 54°50' W 001°20'0 0.0
2014-Jul-27 16:27N 54°50' W 001°20'0 0.0
2014-Jul-27 15:33N 54°50' W 001°20'0 0.0
2014-Jul-27 14:33N 54°50' W 001°20'0 0.0
2014-Jul-27 13:33N 54°50' W 001°20'0 0.0
2014-Jul-27 12:33N 54°50' W 001°20'0 0.0
2014-Jul-27 11:33N 54°50' W 001°20'0 0.0
2014-Jul-27 10:33N 54°50' W 001°20'0 0.0
2014-Jul-27 09:33N 54°50' W 001°20'0 0.0
2014-Jul-27 08:33N 54°50' W 001°20'0 0.0
2014-Jul-27 07:27N 54°50' W 001°20'0 0.0
2014-Jul-27 06:32N 54°50' W 001°20'0 0.0
2014-Jul-27 05:33N 54°50' W 001°20'0 0.0
2014-Jul-27 04:33N 54°50' W 001°20'0 0.0
2014-Jul-27 03:32N 54°50' W 001°20'1 0.3
2014-Jul-27 00:09N 54°50' W 001°18'1 1.7
2014-Jul-26 23:33N 54°51' W 001°16'1110.8
2014-Jul-26 22:33N 54°54' W 000°59'1111.2
2014-Jul-26 21:33N 54°58' W 000°40'1111.3
2014-Jul-26 20:33N 55°02' W 000°22'1111.3
2014-Jul-26 19:33N 55°06' W 000°03'1111.3
2014-Jul-26 18:33N 55°09' E 000°16'1111.2
2014-Jul-26 17:33N 55°13' E 000°34'1111.1
2014-Jul-26 16:33N 55°16' E 000°52'1111.2
2014-Jul-26 15:33N 55°20' E 001°11'1211.5
2014-Jul-26 14:33N 55°24' E 001°30'1211.7
2014-Jul-26 13:33N 55°28' E 001°50'1211.9
2014-Jul-26 12:33N 55°32' E 002°10'1211.8
2014-Jul-26 11:33N 55°36' E 002°29'1211.8
2014-Jul-26 10:33N 55°39' E 002°49'1211.5
2014-Jul-26 09:33N 55°43' E 003°09'21811.5
2014-Jul-25 14:33N 57°22' E 009°01'3611.4
2014-Jul-25 11:26N 57°40' E 009°58'1011.2
2014-Jul-25 10:33N 57°44' E 010°15'1111.5
2014-Jul-25 09:33N 57°48' E 010°36'1110.6
2014-Jul-25 08:33N 57°45' E 010°55'1111.0
2014-Jul-25 07:33N 57°37' E 011°09'1111.1
2014-Jul-25 06:33N 57°29' E 011°24'1111.3
2014-Jul-25 05:33N 57°19' E 011°32'1110.9
2014-Jul-25 04:32N 57°08' E 011°40'1111.0
2014-Jul-25 03:33N 56°58' E 011°47'1111.5
2014-Jul-25 02:33N 56°47' E 011°54'1212.0
2014-Jul-25 01:33N 56°36' E 011°58'1111.3
2014-Jul-25 00:33N 56°25' E 012°03'1010.3
2014-Jul-24 23:33N 56°16' E 012°12'1111.3
2014-Jul-24 22:33N 56°09' E 012°28'1111.3
2014-Jul-24 21:33N 56°00' E 012°41'1111.1
2014-Jul-24 20:33N 55°49' E 012°43'1111.4
2014-Jul-24 19:33N 55°38' E 012°42'1111.3
2014-Jul-24 18:33N 55°27' E 012°43'1010.1
2014-Jul-24 17:33N 55°17' E 012°48'1211.6
2014-Jul-24 16:33N 55°16' E 013°08'1211.7
2014-Jul-24 15:32N 55°15' E 013°29'1211.9
2014-Jul-24 14:33N 55°14' E 013°49'1211.9
2014-Jul-24 13:33N 55°14' E 014°10'1111.0
2014-Jul-24 12:33N 55°20' E 014°25'1211.7
2014-Jul-24 11:33N 55°28' E 014°41'1211.6
2014-Jul-24 10:33N 55°34' E 014°58'1211.7
2014-Jul-24 09:33N 55°40' E 015°16'1211.8
2014-Jul-24 08:33N 55°46' E 015°34'1211.9
2014-Jul-24 07:33N 55°52' E 015°52'1211.8
2014-Jul-24 06:33N 55°58' E 016°10'1211.9
2014-Jul-24 05:33N 56°04' E 016°29'1111.5
2014-Jul-24 04:33N 56°11' E 016°45'1211.7
2014-Jul-24 03:33N 56°22' E 016°53'1211.7
2014-Jul-24 02:33N 56°33' E 017°00'1211.5
2014-Jul-24 01:33N 56°44' E 017°08'1211.6
2014-Jul-24 00:33N 56°55' E 017°16'1111.4
2014-Jul-23 23:33N 57°05' E 017°23'1111.4
2014-Jul-23 22:33N 57°16' E 017°31'1111.3
2014-Jul-23 21:33N 57°27' E 017°38'1211.5
2014-Jul-23 20:33N 57°37' E 017°48'1211.5
2014-Jul-23 19:33N 57°47' E 017°58'1211.7
2014-Jul-23 18:33N 57°57' E 018°10'1211.5
2014-Jul-23 17:32N 58°07' E 018°21'1111.1
2014-Jul-23 16:33N 58°16' E 018°31'115 9.6
2014-Jul-23 04:32N 60°11' E 019°01'  
Track history (hours):
 
Tides and Currents Weather Stations Pressure Air Temp Water Temp Dewpoint Dewpoint Depression Visibility Wind Speed Wind Dir Waves Ship Positions

Fingard

Last reported at 2014-Jul-28 05:27 UTC. Time now 2014-Jul-28 06:18 UTC.
Position N 54°50' W 001°20'.

Length 95 m; draft 6 m.

Type: Ship. MMSI: 230999000.

Date/timePositionNaut miles runAvg speedWind from/ knotsBaromVisibWave heightAir tempDewpointWater temp
2014-Jul-28 05:27N 54°50' W 001°20'0 0.0
2014-Jul-28 04:33N 54°50' W 001°20'0 0.0
2014-Jul-28 03:33N 54°50' W 001°20'0 0.0
2014-Jul-28 02:33N 54°50' W 001°20'0 0.0
2014-Jul-28 01:33N 54°50' W 001°20'0 0.0
2014-Jul-28 00:33N 54°50' W 001°20'0 0.0
2014-Jul-27 23:33N 54°50' W 001°20'0 0.0
2014-Jul-27 22:33N 54°50' W 001°20'0 0.0
2014-Jul-27 21:33N 54°50' W 001°20'0 0.0
2014-Jul-27 20:33N 54°50' W 001°20'0 0.0
2014-Jul-27 19:30N 54°50' W 001°20'0 0.0
2014-Jul-27 18:33N 54°50' W 001°20'0 0.0
2014-Jul-27 17:33N 54°50' W 001°20'0 0.0
2014-Jul-27 16:27N 54°50' W 001°20'0 0.0
2014-Jul-27 15:33N 54°50' W 001°20'0 0.0
2014-Jul-27 14:33N 54°50' W 001°20'0 0.0
2014-Jul-27 13:33N 54°50' W 001°20'0 0.0
2014-Jul-27 12:33N 54°50' W 001°20'0 0.0
2014-Jul-27 11:33N 54°50' W 001°20'0 0.0
2014-Jul-27 10:33N 54°50' W 001°20'0 0.0
2014-Jul-27 09:33N 54°50' W 001°20'0 0.0
2014-Jul-27 08:33N 54°50' W 001°20'0 0.0
2014-Jul-27 07:27N 54°50' W 001°20'0 0.0
2014-Jul-27 06:32N 54°50' W 001°20'0 0.0
2014-Jul-27 05:33N 54°50' W 001°20'0 0.0
2014-Jul-27 04:33N 54°50' W 001°20'0 0.0
2014-Jul-27 03:32N 54°50' W 001°20'1 0.3
2014-Jul-27 00:09N 54°50' W 001°18'1 1.7
2014-Jul-26 23:33N 54°51' W 001°16'1110.8
2014-Jul-26 22:33N 54°54' W 000°59'1111.2
2014-Jul-26 21:33N 54°58' W 000°40'1111.3
2014-Jul-26 20:33N 55°02' W 000°22'1111.3
2014-Jul-26 19:33N 55°06' W 000°03'1111.3
2014-Jul-26 18:33N 55°09' E 000°16'1111.2
2014-Jul-26 17:33N 55°13' E 000°34'1111.1
2014-Jul-26 16:33N 55°16' E 000°52'1111.2
2014-Jul-26 15:33N 55°20' E 001°11'1211.5
2014-Jul-26 14:33N 55°24' E 001°30'1211.7
2014-Jul-26 13:33N 55°28' E 001°50'1211.9
2014-Jul-26 12:33N 55°32' E 002°10'1211.8
2014-Jul-26 11:33N 55°36' E 002°29'1211.8
2014-Jul-26 10:33N 55°39' E 002°49'1211.5
2014-Jul-26 09:33N 55°43' E 003°09'21811.5
2014-Jul-25 14:33N 57°22' E 009°01'3611.4
2014-Jul-25 11:26N 57°40' E 009°58'1011.2
2014-Jul-25 10:33N 57°44' E 010°15'1111.5
2014-Jul-25 09:33N 57°48' E 010°36'1110.6
2014-Jul-25 08:33N 57°45' E 010°55'1111.0
2014-Jul-25 07:33N 57°37' E 011°09'1111.1
2014-Jul-25 06:33N 57°29' E 011°24'1111.3
2014-Jul-25 05:33N 57°19' E 011°32'1110.9
2014-Jul-25 04:32N 57°08' E 011°40'1111.0
2014-Jul-25 03:33N 56°58' E 011°47'1111.5
2014-Jul-25 02:33N 56°47' E 011°54'1212.0
2014-Jul-25 01:33N 56°36' E 011°58'1111.3
2014-Jul-25 00:33N 56°25' E 012°03'1010.3
2014-Jul-24 23:33N 56°16' E 012°12'1111.3
2014-Jul-24 22:33N 56°09' E 012°28'1111.3
2014-Jul-24 21:33N 56°00' E 012°41'1111.1
2014-Jul-24 20:33N 55°49' E 012°43'1111.4
2014-Jul-24 19:33N 55°38' E 012°42'1111.3
2014-Jul-24 18:33N 55°27' E 012°43'1010.1
2014-Jul-24 17:33N 55°17' E 012°48'1211.6
2014-Jul-24 16:33N 55°16' E 013°08'1211.7
2014-Jul-24 15:32N 55°15' E 013°29'1211.9
2014-Jul-24 14:33N 55°14' E 013°49'1211.9
2014-Jul-24 13:33N 55°14' E 014°10'1111.0
2014-Jul-24 12:33N 55°20' E 014°25'1211.7
2014-Jul-24 11:33N 55°28' E 014°41'1211.6
2014-Jul-24 10:33N 55°34' E 014°58'1211.7
2014-Jul-24 09:33N 55°40' E 015°16'1211.8
2014-Jul-24 08:33N 55°46' E 015°34'1211.9
2014-Jul-24 07:33N 55°52' E 015°52'1211.8
2014-Jul-24 06:33N 55°58' E 016°10'1211.9
2014-Jul-24 05:33N 56°04' E 016°29'1111.5
2014-Jul-24 04:33N 56°11' E 016°45'1211.7
2014-Jul-24 03:33N 56°22' E 016°53'1211.7
2014-Jul-24 02:33N 56°33' E 017°00'1211.5
2014-Jul-24 01:33N 56°44' E 017°08'1211.6
2014-Jul-24 00:33N 56°55' E 017°16'1111.4
2014-Jul-23 23:33N 57°05' E 017°23'1111.4
2014-Jul-23 22:33N 57°16' E 017°31'1111.3
2014-Jul-23 21:33N 57°27' E 017°38'1211.5
2014-Jul-23 20:33N 57°37' E 017°48'1211.5
2014-Jul-23 19:33N 57°47' E 017°58'1211.7
2014-Jul-23 18:33N 57°57' E 018°10'1211.5
2014-Jul-23 17:32N 58°07' E 018°21'1111.1
2014-Jul-23 16:33N 58°16' E 018°31'115 9.6
2014-Jul-23 04:32N 60°11' E 019°01'  

Dump ship's entire track history